createdAt,value
2023-04-03T00:00:18.563Z,66.66
2023-04-03T00:02:45.243Z,66.65
2023-04-03T00:05:11.846Z,66.71
2023-04-03T00:07:38.528Z,66.66
2023-04-03T00:10:05.770Z,66.88
2023-04-03T00:12:32.416Z,67.01
2023-04-03T00:14:59.136Z,67.00
2023-04-03T00:17:26.369Z,67.02
2023-04-03T00:19:52.923Z,67.02
2023-04-03T00:22:19.664Z,66.80
2023-04-03T00:24:46.305Z,66.73
2023-04-03T00:27:12.846Z,66.77
2023-04-03T00:29:39.942Z,66.70
2023-04-03T00:32:06.512Z,66.63
2023-04-03T00:34:33.119Z,66.52
2023-04-03T00:36:59.897Z,66.16
2023-04-03T00:39:27.151Z,66.13
2023-04-03T00:41:54.148Z,66.66
2023-04-03T00:44:43.816Z,65.87
2023-04-03T00:47:14.608Z,66.70
2023-04-03T00:49:42.038Z,66.96
2023-04-03T00:52:12.753Z,66.92
2023-04-03T00:54:41.916Z,66.80
2023-04-03T00:57:09.805Z,66.69
2023-04-03T00:59:41.302Z,66.97
2023-04-03T01:02:08.021Z,66.89
2023-04-03T01:04:40.070Z,66.26
2023-04-03T01:07:13.992Z,66.30
2023-04-03T01:09:41.398Z,65.83
2023-04-03T01:12:20.484Z,65.83
2023-04-03T01:14:54.287Z,65.57
2023-04-03T01:17:41.022Z,65.51
2023-04-03T01:20:34.059Z,65.22
2023-04-03T01:23:10.125Z,65.46
2023-04-03T01:25:48.868Z,65.15
2023-04-03T01:28:23.246Z,65.27
2023-04-03T01:31:28.853Z,65.54
2023-04-03T01:33:56.641Z,66.22
2023-04-03T01:36:30.591Z,66.01
2023-04-03T01:38:59.351Z,66.35
2023-04-03T01:41:26.793Z,66.48
2023-04-03T01:43:58.474Z,66.34
2023-04-03T01:46:25.296Z,66.51
2023-04-03T01:48:52.161Z,66.81
2023-04-03T01:51:18.752Z,66.72
2023-04-03T01:53:45.318Z,66.86
2023-04-03T01:56:12.066Z,66.81
2023-04-03T01:58:39.058Z,66.76
2023-04-03T02:01:06.309Z,66.89
2023-04-03T02:03:33.387Z,66.84
2023-04-03T02:06:01.002Z,66.90
2023-04-03T02:08:27.674Z,66.63
2023-04-03T02:10:54.293Z,66.49
2023-04-03T02:13:21.121Z,66.48
2023-04-03T02:15:48.169Z,66.55
2023-04-03T02:18:18.168Z,66.66
2023-04-03T02:20:44.784Z,66.57
2023-04-03T02:23:11.884Z,66.57
2023-04-03T02:25:38.976Z,66.38
2023-04-03T02:28:06.361Z,66.17
2023-04-03T02:30:33.151Z,66.35
2023-04-03T02:32:59.926Z,66.37
2023-04-03T02:35:27.502Z,66.50
2023-04-03T02:37:56.495Z,66.28
2023-04-03T02:40:23.494Z,66.26
2023-04-03T02:42:50.964Z,66.47
2023-04-03T02:45:19.072Z,66.47
2023-04-03T02:47:45.737Z,66.55
2023-04-03T02:50:12.341Z,66.75
2023-04-03T02:52:39.065Z,66.59
2023-04-03T02:55:06.298Z,66.69
2023-04-03T02:57:33.346Z,66.82
2023-04-03T02:59:59.974Z,66.78
2023-04-03T03:02:26.697Z,66.77
2023-04-03T03:04:53.355Z,66.54
2023-04-03T03:07:19.993Z,66.45
2023-04-03T03:09:46.715Z,66.69
2023-04-03T03:12:13.462Z,66.85
2023-04-03T03:14:40.248Z,66.86
2023-04-03T03:17:06.923Z,66.91
2023-04-03T03:19:34.165Z,66.91
2023-04-03T03:22:00.848Z,66.76
2023-04-03T03:24:27.500Z,66.53
2023-04-03T03:26:54.334Z,66.58
2023-04-03T03:29:20.998Z,65.87
2023-04-03T03:31:47.807Z,65.85
2023-04-03T03:34:15.088Z,65.92
2023-04-03T03:36:41.828Z,65.97
2023-04-03T03:39:08.468Z,65.84
2023-04-03T03:41:35.095Z,65.97
2023-04-03T03:44:03.118Z,66.01
2023-04-03T03:46:32.089Z,66.16
2023-04-03T03:48:58.784Z,65.75
2023-04-03T03:51:25.439Z,65.60
2023-04-03T03:53:52.091Z,65.85
2023-04-03T03:56:20.111Z,65.64
2023-04-03T03:58:46.940Z,65.37
2023-04-03T04:01:14.094Z,65.37
2023-04-03T04:03:45.667Z,65.83
2023-04-03T04:06:17.444Z,65.89
2023-04-03T04:08:44.392Z,66.31
2023-04-03T04:11:12.642Z,66.19
2023-04-03T04:13:40.415Z,66.31
2023-04-03T04:16:08.388Z,65.91
2023-04-03T04:18:35.205Z,66.29
2023-04-03T04:21:01.967Z,66.45
2023-04-03T04:23:29.495Z,66.50
2023-04-03T04:25:58.879Z,66.47
2023-04-03T04:28:26.865Z,66.76
2023-04-03T04:30:55.516Z,66.64
2023-04-03T04:33:25.357Z,66.66
2023-04-03T04:35:52.126Z,66.46
2023-04-03T04:38:20.894Z,66.30
2023-04-03T04:40:49.269Z,66.63
2023-04-03T04:43:18.091Z,66.54
2023-04-03T04:45:47.724Z,66.56
2023-04-03T04:48:17.440Z,66.05
2023-04-03T04:50:44.145Z,65.88
2023-04-03T04:53:10.763Z,65.71
2023-04-03T04:55:37.859Z,65.38
2023-04-03T04:58:05.030Z,65.99
2023-04-03T05:00:31.804Z,66.09
2023-04-03T05:02:58.425Z,65.92
2023-04-03T05:05:25.198Z,65.35
2023-04-03T05:07:52.532Z,65.61
2023-04-03T05:10:19.191Z,65.49
2023-04-03T05:12:47.088Z,65.16
2023-04-03T05:15:17.172Z,65.44
2023-04-03T05:17:44.805Z,65.92
2023-04-03T05:20:14.392Z,65.69
2023-04-03T05:22:42.622Z,65.75
2023-04-03T05:25:11.405Z,65.61
2023-04-03T05:27:40.978Z,65.15
2023-04-03T05:30:09.173Z,64.99
2023-04-03T05:32:37.905Z,64.92
2023-04-03T05:35:19.718Z,64.90
2023-04-03T05:37:49.506Z,64.96
2023-04-03T05:40:18.681Z,65.03
2023-04-03T05:42:47.455Z,64.66
2023-04-03T05:45:16.139Z,64.55
2023-04-03T05:47:42.835Z,64.59
2023-04-03T05:50:09.941Z,64.81
2023-04-03T05:52:41.373Z,64.88
2023-04-03T05:55:08.525Z,64.82
2023-04-03T05:57:35.994Z,65.11
2023-04-03T06:00:06.399Z,65.07
2023-04-03T06:02:41.135Z,64.64
2023-04-03T06:05:11.294Z,64.86
2023-04-03T06:07:38.002Z,64.98
2023-04-03T06:10:05.440Z,65.21
2023-04-03T06:12:32.234Z,65.41
2023-04-03T06:14:58.953Z,64.35
2023-04-03T06:17:25.717Z,64.00
2023-04-03T06:19:53.707Z,64.34
2023-04-03T06:22:20.730Z,64.81
2023-04-03T06:24:47.508Z,65.22
2023-04-03T06:27:14.106Z,65.16
2023-04-03T06:29:40.698Z,65.50
2023-04-03T06:32:07.384Z,65.81
2023-04-03T06:34:33.948Z,65.23
2023-04-03T06:37:00.537Z,64.37
2023-04-03T06:39:27.140Z,64.24
2023-04-03T06:41:53.891Z,63.33
2023-04-03T06:44:28.708Z,62.57
2023-04-03T06:46:55.325Z,62.86
2023-04-03T06:49:22.105Z,63.44
2023-04-03T06:51:48.784Z,63.66
2023-04-03T06:54:15.348Z,63.50
2023-04-03T06:56:42.007Z,63.30
2023-04-03T06:59:08.667Z,63.59
2023-04-03T07:01:35.395Z,63.44
2023-04-03T07:04:01.999Z,63.81
2023-04-03T07:06:28.962Z,63.14
2023-04-03T07:08:56.422Z,63.26
2023-04-03T07:11:23.341Z,63.50
2023-04-03T07:13:50.764Z,63.42
2023-04-03T07:16:19.540Z,64.15
2023-04-03T07:18:46.839Z,63.68
2023-04-03T07:21:13.917Z,63.69
2023-04-03T07:23:40.682Z,64.16
2023-04-03T07:26:07.348Z,64.70
2023-04-03T07:28:34.137Z,64.88
2023-04-03T07:31:07.228Z,64.46
2023-04-03T07:33:34.174Z,64.80
2023-04-03T07:36:00.895Z,62.70
2023-04-03T07:38:27.692Z,61.74
2023-04-03T07:40:54.397Z,61.79
2023-04-03T07:43:22.714Z,61.56
2023-04-03T07:45:50.359Z,60.20
2023-04-03T07:48:18.699Z,61.22
2023-04-03T07:50:45.545Z,61.25
2023-04-03T07:53:12.322Z,60.17
2023-04-03T07:55:39.223Z,59.32
2023-04-03T07:58:05.927Z,59.78
2023-04-03T08:00:32.662Z,58.48
2023-04-03T08:02:59.455Z,58.58
2023-04-03T08:05:26.064Z,59.56
2023-04-03T08:07:52.665Z,59.05
2023-04-03T08:10:19.411Z,59.45
2023-04-03T08:12:49.667Z,60.42
2023-04-03T08:15:16.544Z,61.57
2023-04-03T08:17:43.299Z,62.09
2023-04-03T08:20:11.486Z,61.47
2023-04-03T08:22:38.453Z,61.07
2023-04-03T08:25:05.369Z,60.59
2023-04-03T08:27:34.370Z,59.89
2023-04-03T08:30:00.949Z,60.27
2023-04-03T08:32:27.886Z,60.23
2023-04-03T08:34:54.703Z,59.47
2023-04-03T08:37:21.439Z,59.46
2023-04-03T08:39:48.164Z,59.33
2023-04-03T08:42:35.850Z,56.67
2023-04-03T08:45:11.329Z,57.31
2023-04-03T08:47:53.937Z,57.72
2023-04-03T08:50:26.123Z,58.33
2023-04-03T08:53:00.311Z,58.00
2023-04-03T08:55:35.741Z,59.09
2023-04-03T08:58:06.618Z,60.02
2023-04-03T09:00:45.688Z,59.44
2023-04-03T09:03:17.875Z,59.07
2023-04-03T09:05:51.935Z,59.36
2023-04-03T09:08:29.394Z,59.98
2023-04-03T09:11:19.683Z,54.93
2023-04-03T09:14:03.530Z,55.27
2023-04-03T09:16:50.456Z,56.23
2023-04-03T09:19:32.515Z,55.22
2023-04-03T09:22:21.959Z,55.39
2023-04-03T09:24:56.894Z,55.24
2023-04-03T09:27:23.609Z,55.68
2023-04-03T09:29:55.868Z,55.65
2023-04-03T09:32:35.246Z,56.27
2023-04-03T09:35:21.873Z,56.23
2023-04-03T09:37:54.737Z,56.82
2023-04-03T09:40:27.437Z,56.28
2023-04-03T09:43:01.227Z,57.13
2023-04-03T09:45:31.653Z,57.84
2023-04-03T09:48:15.460Z,58.38
2023-04-03T09:50:51.860Z,58.91
2023-04-03T09:53:29.120Z,57.43
2023-04-03T09:55:56.056Z,57.49
2023-04-03T09:58:46.720Z,56.02
2023-04-03T10:01:38.017Z,54.76
2023-04-03T10:04:12.166Z,53.53
2023-04-03T10:06:42.308Z,52.13
2023-04-03T10:09:25.936Z,53.94
2023-04-03T10:12:04.128Z,54.67
2023-04-03T10:14:30.810Z,55.34
2023-04-03T10:17:10.428Z,53.62
2023-04-03T10:19:44.849Z,54.36
2023-04-03T10:22:19.790Z,54.27
2023-04-03T10:25:02.151Z,51.99
2023-04-03T10:27:59.721Z,52.33
2023-04-03T10:30:35.590Z,53.98
2023-04-03T10:33:19.369Z,54.53
2023-04-03T10:36:04.219Z,54.37
2023-04-03T10:38:43.809Z,53.92
2023-04-03T10:41:33.045Z,53.02
2023-04-03T10:44:46.349Z,54.31
2023-04-03T10:47:32.709Z,54.71
2023-04-03T10:50:32.550Z,55.31
2023-04-03T10:53:30.642Z,55.91
2023-04-03T10:56:08.610Z,56.37
2023-04-03T10:58:44.223Z,57.40
2023-04-03T11:01:17.571Z,57.82
2023-04-03T11:03:52.149Z,57.90
2023-04-03T11:06:23.387Z,58.30
2023-04-03T11:08:55.052Z,58.77
2023-04-03T11:11:37.171Z,58.09
2023-04-03T11:14:12.137Z,58.12
2023-04-03T11:16:53.352Z,57.64
2023-04-03T11:19:28.036Z,55.51
2023-04-03T11:22:02.775Z,55.13
2023-04-03T11:24:33.619Z,54.64
2023-04-03T11:27:02.813Z,54.68
2023-04-03T11:29:36.315Z,55.01
2023-04-03T11:32:18.169Z,55.03
2023-04-03T11:34:50.200Z,55.80
2023-04-03T11:37:35.272Z,56.03
2023-04-03T11:40:07.236Z,56.43
2023-04-03T11:42:43.027Z,56.01
2023-04-03T11:45:30.232Z,53.51
2023-04-03T11:48:10.183Z,52.14
2023-04-03T11:50:47.118Z,53.47
2023-04-03T11:53:13.651Z,55.11
2023-04-03T11:55:48.910Z,53.33
2023-04-03T11:58:17.410Z,53.95
2023-04-03T12:01:01.188Z,53.01
2023-04-03T12:03:35.377Z,52.65
2023-04-03T12:06:07.790Z,51.92
2023-04-03T12:08:34.406Z,50.21
2023-04-03T12:11:10.059Z,51.86
2023-04-03T12:13:55.140Z,49.94
2023-04-03T12:16:23.138Z,49.69
2023-04-03T12:18:49.840Z,50.97
2023-04-03T12:21:18.927Z,50.92
2023-04-03T12:24:08.916Z,51.96
2023-04-03T12:26:49.805Z,51.34
2023-04-03T12:29:28.285Z,50.25
2023-04-03T12:32:11.000Z,50.34
2023-04-03T12:34:44.328Z,47.74
2023-04-03T12:37:44.264Z,47.55
2023-04-03T12:40:39.292Z,48.76
2023-04-03T12:43:05.940Z,44.65
2023-04-03T12:45:45.244Z,46.16
2023-04-03T12:48:16.854Z,45.85
2023-04-03T12:50:47.543Z,47.53
2023-04-03T12:53:19.058Z,45.67
2023-04-03T12:55:45.873Z,46.50
2023-04-03T12:58:38.863Z,48.40
2023-04-03T13:01:13.447Z,46.03
2023-04-03T13:03:44.448Z,43.02
2023-04-03T13:06:22.194Z,42.67
2023-04-03T13:08:57.757Z,43.61
2023-04-03T13:11:26.413Z,44.04
2023-04-03T13:14:00.838Z,44.67
2023-04-03T13:16:28.061Z,46.11
2023-04-03T13:18:56.429Z,47.08
2023-04-03T13:21:27.495Z,45.50
2023-04-03T13:24:07.628Z,47.22
2023-04-03T13:26:41.418Z,46.00
2023-04-03T13:29:30.889Z,42.72
2023-04-03T13:31:59.565Z,42.04
2023-04-03T13:34:37.969Z,43.73
2023-04-03T13:37:05.707Z,43.74
2023-04-03T13:39:37.766Z,44.49
2023-04-03T13:42:23.499Z,42.27
2023-04-03T13:44:50.629Z,40.81
2023-04-03T13:47:19.502Z,42.03
2023-04-03T13:50:01.901Z,39.92
2023-04-03T13:52:35.918Z,39.18
2023-04-03T13:55:24.552Z,39.18
2023-04-03T13:58:20.682Z,39.01
2023-04-03T14:00:47.338Z,37.89
2023-04-03T14:03:41.552Z,39.40
2023-04-03T14:06:13.624Z,38.61
2023-04-03T14:08:43.467Z,38.84
2023-04-03T14:11:16.514Z,39.50
2023-04-03T14:13:44.606Z,40.09
2023-04-03T14:16:16.390Z,41.86
2023-04-03T14:18:45.462Z,40.01
2023-04-03T14:21:13.961Z,39.49
2023-04-03T14:23:40.900Z,38.25
2023-04-03T14:26:22.147Z,39.37
2023-04-03T14:28:51.531Z,39.84
2023-04-03T14:31:19.035Z,37.95
2023-04-03T14:33:46.712Z,37.77
2023-04-03T14:36:25.909Z,39.17
2023-04-03T14:38:53.414Z,38.81
2023-04-03T14:41:22.900Z,39.66
2023-04-03T14:43:50.762Z,35.69
2023-04-03T14:46:55.515Z,36.12
2023-04-03T14:49:26.623Z,37.81
2023-04-03T14:51:53.458Z,36.88
2023-04-03T14:54:23.087Z,39.11
2023-04-03T14:56:49.756Z,38.86
2023-04-03T14:59:16.537Z,40.97
2023-04-03T15:01:43.120Z,39.83
2023-04-03T15:04:21.601Z,39.86
2023-04-03T15:06:49.949Z,40.50
2023-04-03T15:09:20.302Z,41.32
2023-04-03T15:11:47.407Z,40.67
2023-04-03T15:14:16.770Z,36.24
2023-04-03T15:16:51.326Z,35.03
2023-04-03T15:19:17.954Z,34.58
2023-04-03T15:21:44.814Z,36.13
2023-04-03T15:24:11.480Z,35.96
2023-04-03T15:26:38.654Z,36.93
2023-04-03T15:29:05.949Z,35.39
2023-04-03T15:31:33.011Z,37.45
2023-04-03T15:34:00.141Z,35.89
2023-04-03T15:36:34.090Z,38.02
2023-04-03T15:39:01.675Z,37.88
2023-04-03T15:41:28.316Z,38.70
2023-04-03T15:43:54.938Z,38.00
2023-04-03T15:46:21.650Z,37.13
2023-04-03T15:48:48.320Z,34.45
2023-04-03T15:51:15.109Z,34.79
2023-04-03T15:53:41.770Z,34.96
2023-04-03T15:56:08.552Z,33.33
2023-04-03T15:58:35.194Z,32.06
2023-04-03T16:01:03.229Z,32.06
2023-04-03T16:03:30.816Z,31.32
2023-04-03T16:05:57.841Z,31.73
2023-04-03T16:08:24.520Z,32.53
2023-04-03T16:10:51.382Z,31.39
2023-04-03T16:13:17.933Z,32.53
2023-04-03T16:15:44.690Z,32.56
2023-04-03T16:18:11.545Z,33.65
2023-04-03T16:20:38.574Z,35.21
2023-04-03T16:23:05.914Z,35.87
2023-04-03T16:25:32.690Z,36.34
2023-04-03T16:27:59.344Z,37.66
2023-04-03T16:30:26.679Z,36.30
2023-04-03T16:32:53.439Z,35.27
2023-04-03T16:35:20.267Z,35.56
2023-04-03T16:37:46.992Z,36.02
2023-04-03T16:40:13.957Z,35.86
2023-04-03T16:42:40.743Z,36.93
2023-04-03T16:45:08.346Z,38.04
2023-04-03T16:47:35.403Z,39.37
2023-04-03T16:50:02.095Z,38.72
2023-04-03T16:52:28.714Z,38.32
2023-04-03T16:54:55.397Z,38.65
2023-04-03T16:57:23.507Z,37.79
2023-04-03T16:59:50.840Z,37.66
2023-04-03T17:02:17.533Z,37.43
2023-04-03T17:04:44.198Z,37.80
2023-04-03T17:07:10.824Z,38.56
2023-04-03T17:09:37.471Z,38.90
2023-04-03T17:12:04.077Z,38.82
2023-04-03T17:14:30.771Z,38.32
2023-04-03T17:16:57.439Z,39.31
2023-04-03T17:19:24.092Z,39.32
2023-04-03T17:21:50.705Z,38.75
2023-04-03T17:24:18.053Z,40.13
2023-04-03T17:26:44.729Z,40.47
2023-04-03T17:29:11.376Z,41.08
2023-04-03T17:31:38.163Z,40.66
2023-04-03T17:34:04.824Z,40.81
2023-04-03T17:36:33.832Z,41.29
2023-04-03T17:39:01.148Z,41.02
2023-04-03T17:41:27.764Z,41.25
2023-04-03T17:43:54.376Z,41.71
2023-04-03T17:46:20.943Z,41.92
2023-04-03T17:48:47.555Z,41.84
2023-04-03T17:51:16.776Z,41.63
2023-04-03T17:53:43.652Z,41.47
2023-04-03T17:56:13.889Z,41.92
2023-04-03T17:58:40.548Z,40.57
2023-04-03T18:01:19.483Z,40.33
2023-04-03T18:03:47.082Z,41.04
2023-04-03T18:06:19.850Z,41.27
2023-04-03T18:08:50.064Z,41.72
2023-04-03T18:11:17.924Z,41.97
2023-04-03T18:13:46.140Z,41.57
2023-04-03T18:16:13.824Z,41.82
2023-04-03T18:18:40.937Z,42.80
2023-04-03T18:21:10.725Z,42.84
2023-04-03T18:23:41.935Z,43.16
2023-04-03T18:26:12.323Z,42.65
2023-04-03T18:28:42.703Z,43.24
2023-04-03T18:31:10.537Z,43.76
2023-04-03T18:33:37.573Z,44.05
2023-04-03T18:36:05.420Z,44.61
2023-04-03T18:38:32.151Z,44.74
2023-04-03T18:41:00.440Z,44.88
2023-04-03T18:43:26.997Z,44.98
2023-04-03T18:45:54.221Z,44.58
2023-04-03T18:48:20.985Z,45.16
2023-04-03T18:50:48.882Z,45.14
2023-04-03T18:53:15.546Z,44.70
2023-04-03T18:55:42.347Z,44.94
2023-04-03T18:58:09.197Z,44.71
2023-04-03T19:00:35.947Z,45.10
2023-04-03T19:03:02.711Z,44.96
2023-04-03T19:05:29.457Z,44.67
2023-04-03T19:07:56.118Z,45.28
2023-04-03T19:10:22.983Z,45.56
2023-04-03T19:12:51.169Z,45.65
2023-04-03T19:15:19.290Z,45.64
2023-04-03T19:17:45.988Z,45.80
2023-04-03T19:20:13.649Z,46.02
2023-04-03T19:22:40.927Z,45.83
2023-04-03T19:25:09.776Z,45.50
2023-04-03T19:27:37.449Z,45.54
2023-04-03T19:30:09.565Z,45.35
2023-04-03T19:32:36.258Z,45.16
2023-04-03T19:35:03.235Z,45.52
2023-04-03T19:37:29.873Z,45.67
2023-04-03T19:39:56.468Z,46.03
2023-04-03T19:42:23.211Z,46.48
2023-04-03T19:44:51.171Z,46.56
2023-04-03T19:47:17.829Z,46.64
2023-04-03T19:49:44.370Z,46.92
2023-04-03T19:52:11.232Z,47.05
2023-04-03T19:54:37.837Z,46.99
2023-04-03T19:57:04.505Z,47.30
2023-04-03T19:59:31.218Z,47.41
2023-04-03T20:01:57.930Z,47.45
2023-04-03T20:04:24.603Z,47.63
2023-04-03T20:06:51.250Z,47.80
2023-04-03T20:09:17.821Z,47.94
2023-04-03T20:11:45.220Z,48.20
2023-04-03T20:14:11.994Z,48.32
2023-04-03T20:16:38.596Z,48.07
2023-04-03T20:19:05.293Z,48.16
2023-04-03T20:21:33.756Z,48.22
2023-04-03T20:24:01.904Z,48.50
2023-04-03T20:26:29.704Z,47.92
2023-04-03T20:28:57.275Z,48.05
2023-04-03T20:31:25.595Z,48.81
2023-04-03T20:33:52.432Z,49.13
2023-04-03T20:36:19.634Z,49.05
2023-04-03T20:38:47.160Z,49.36
2023-04-03T20:41:15.458Z,49.53
2023-04-03T20:43:43.513Z,49.56
2023-04-03T20:46:10.740Z,49.89
2023-04-03T20:48:37.591Z,49.91
2023-04-03T20:51:16.560Z,49.37
2023-04-03T20:53:43.298Z,50.22
2023-04-03T20:56:10.012Z,50.32
2023-04-03T20:58:37.898Z,50.51
2023-04-03T21:01:16.829Z,50.36
2023-04-03T21:03:43.912Z,50.80
2023-04-03T21:06:48.383Z,49.98
2023-04-03T21:09:52.414Z,50.21
2023-04-03T21:12:56.806Z,50.10
2023-04-03T21:15:48.364Z,50.11
2023-04-03T21:18:58.337Z,50.15
2023-04-03T21:21:26.493Z,51.31
2023-04-03T21:23:54.943Z,51.02
2023-04-03T21:26:22.623Z,51.25
2023-04-03T21:28:52.829Z,51.03
2023-04-03T21:31:22.978Z,50.91
2023-04-03T21:33:50.404Z,51.46
2023-04-03T21:36:17.119Z,51.81
2023-04-03T21:38:43.709Z,51.92
2023-04-03T21:41:10.246Z,51.97
2023-04-03T21:43:36.824Z,52.15
2023-04-03T21:46:03.476Z,52.11
2023-04-03T21:48:30.164Z,52.08
2023-04-03T21:51:05.878Z,51.15
2023-04-03T21:53:32.560Z,52.33
2023-04-03T21:55:59.205Z,52.24
2023-04-03T21:58:32.422Z,51.46
2023-04-03T22:01:32.130Z,51.39
2023-04-03T22:03:59.295Z,52.35
2023-04-03T22:06:26.270Z,52.45
2023-04-03T22:08:52.965Z,52.44
2023-04-03T22:11:19.632Z,52.16
2023-04-03T22:13:46.197Z,51.19
2023-04-03T22:16:12.841Z,51.11
2023-04-03T22:18:39.569Z,51.27
2023-04-03T22:21:06.585Z,51.40
2023-04-03T22:23:33.187Z,50.76
2023-04-03T22:26:08.100Z,50.29
2023-04-03T22:28:38.381Z,50.51
2023-04-03T22:31:06.764Z,50.00
2023-04-03T22:33:37.395Z,49.81
2023-04-03T22:36:05.380Z,50.04
2023-04-03T22:38:32.333Z,50.19
2023-04-03T22:41:00.373Z,49.80
2023-04-03T22:43:28.331Z,49.92
2023-04-03T22:45:55.940Z,49.79
2023-04-03T22:48:23.685Z,49.92
2023-04-03T22:50:51.240Z,49.98
2023-04-03T22:53:18.430Z,49.37
2023-04-03T22:55:53.306Z,49.43
2023-04-03T22:58:19.925Z,49.31
2023-04-03T23:00:46.675Z,49.97
2023-04-03T23:03:13.419Z,50.29
2023-04-03T23:05:40.051Z,50.13
2023-04-03T23:08:06.636Z,49.46
2023-04-03T23:10:33.308Z,49.34
2023-04-03T23:12:59.883Z,49.90
2023-04-03T23:15:26.539Z,49.33
2023-04-03T23:17:53.301Z,48.27
2023-04-03T23:20:19.973Z,48.77
2023-04-03T23:22:46.659Z,48.83
2023-04-03T23:25:13.322Z,48.38
2023-04-03T23:27:40.018Z,48.76
2023-04-03T23:30:07.327Z,49.10
2023-04-03T23:32:34.002Z,49.62
2023-04-03T23:35:00.731Z,49.02
2023-04-03T23:37:27.365Z,49.65
2023-04-03T23:39:54.217Z,49.52
2023-04-03T23:42:20.928Z,49.59
2023-04-03T23:44:47.691Z,49.64
2023-04-03T23:47:14.396Z,48.94
2023-04-03T23:49:41.068Z,49.31
2023-04-03T23:52:07.646Z,49.03
2023-04-03T23:54:34.298Z,49.52
2023-04-03T23:57:01.168Z,48.89
2023-04-03T23:59:28.030Z,48.21
